Time;durP1;ratioP1;P1;durP2;ratioP2;P2;SDS_P1;SDS_P2;PMS_P1;PMS_P2;Temp;Humidity;BMP_temperature;BMP_pressure;BME280_temperature;BME280_humidity;BME280_pressure;Samples;Min_cycle;Max_cycle;Signal;HPM_P1;HPM_P2
2022/01/14 00:00:14;;;;;;;10.98;3.17;;;-0.30;99.90;;;-1.53;100.00;99628.75;5007542;28;20682;-68
2022/01/14 00:02:41;;;;;;;12.43;4.70;;;-0.30;99.90;;;-1.38;100.00;99623.34;5005177;28;20152;-68
2022/01/14 00:05:08;;;;;;;20.83;7.57;;;-0.20;99.90;;;-1.26;100.00;99615.31;5005419;28;20133;-67
2022/01/14 00:07:35;;;;;;;12.02;3.20;;;-0.10;99.90;;;-1.39;100.00;99614.00;5006906;28;20067;-68
2022/01/14 00:10:03;;;;;;;15.32;3.40;;;-0.10;99.90;;;-1.45;100.00;99610.34;5004973;28;20050;-67
2022/01/14 00:12:36;;;;;;;13.95;3.63;;;-0.20;99.90;;;-1.40;100.00;99609.69;5004090;28;20099;-68
2022/01/14 00:15:24;;;;;;;12.93;3.55;;;-0.20;99.90;;;-1.39;100.00;99613.09;5004910;28;20474;-68
2022/01/14 00:17:53;;;;;;;9.07;2.92;;;-0.20;99.90;;;-1.44;100.00;99606.97;5004550;28;20142;-68
2022/01/14 00:20:22;;;;;;;9.23;2.90;;;-0.10;99.90;;;-1.47;100.00;99608.59;5005397;28;20184;-68
2022/01/14 00:22:49;;;;;;;13.63;3.28;;;-0.20;99.90;;;-1.47;100.00;99608.59;5005878;28;20411;-67
2022/01/14 00:33:34;;;;;;;15.35;4.15;;;-0.40;99.90;;;-1.64;100.00;99602.00;5007261;28;20042;-69
2022/01/14 00:36:01;;;;;;;13.05;5.82;;;-0.40;99.90;;;-1.68;100.00;99595.06;5005172;28;20081;-69
2022/01/14 00:38:28;;;;;;;15.70;6.55;;;-0.50;99.90;;;-1.82;100.00;99596.19;5007385;28;20129;-68
2022/01/14 00:40:54;;;;;;;18.83;7.05;;;-0.50;99.90;;;-1.83;100.00;99600.41;5007163;28;20061;-69
2022/01/14 00:43:21;;;;;;;21.70;8.32;;;-0.60;99.90;;;-1.71;100.00;99594.91;5005793;28;20585;-68
2022/01/14 00:45:51;;;;;;;23.83;8.77;;;-0.60;99.90;;;-1.70;100.00;99589.88;5005211;28;20414;-69
2022/01/14 00:48:20;;;;;;;19.05;7.32;;;-0.50;99.90;;;-1.58;100.00;99591.16;5004085;28;20093;-69
2022/01/14 00:50:47;;;;;;;22.63;8.30;;;-0.40;99.90;;;-1.52;100.00;99588.88;5007447;28;20050;-68
2022/01/14 00:53:14;;;;;;;22.55;8.55;;;-0.40;99.90;;;-1.51;100.00;99588.91;5006810;28;20244;-69
2022/01/14 00:56:24;;;;;;;18.77;8.02;;;-0.30;99.90;;;-1.43;100.00;99590.91;5006133;28;20073;-68
2022/01/14 01:01:20;;;;;;;12.60;5.00;;;-0.30;99.90;;;-1.47;100.00;99589.91;5006219;28;20077;-68
2022/01/14 01:03:47;;;;;;;12.05;4.90;;;-0.30;99.90;;;-1.65;100.00;99584.97;5009888;28;20556;-69
2022/01/14 01:06:14;;;;;;;19.00;5.25;;;-0.40;99.90;;;-1.72;100.00;99586.41;5011145;28;20140;-69
2022/01/14 01:08:43;;;;;;;15.73;5.22;;;-0.50;99.90;;;-1.67;100.00;99578.09;5009075;28;21418;-69
2022/01/14 01:11:11;;;;;;;13.45;5.05;;;-0.50;99.90;;;-1.71;100.00;99580.53;5009274;28;20160;-68
2022/01/14 01:13:46;;;;;;;13.20;5.00;;;-0.50;99.90;;;-1.62;100.00;99576.56;5012756;28;20046;-68
2022/01/14 01:16:13;;;;;;;18.23;7.35;;;-0.50;99.90;;;-1.78;100.00;99576.00;5011764;28;20527;-69
2022/01/14 01:18:40;;;;;;;12.77;5.10;;;-0.50;99.90;;;-1.82;100.00;99569.06;5013647;28;20127;-68
2022/01/14 01:21:07;;;;;;;12.32;4.85;;;-0.60;99.90;;;-1.76;100.00;99568.41;5013107;28;20140;-68
2022/01/14 01:23:34;;;;;;;13.15;5.22;;;-0.60;99.90;;;-1.69;100.00;99570.38;5011880;28;20046;-69
2022/01/14 01:26:10;;;;;;;20.00;6.70;;;-0.50;99.90;;;-1.81;100.00;99567.38;5011295;28;20127;-68
2022/01/14 01:28:52;;;;;;;13.75;6.30;;;-0.60;99.90;;;-1.79;100.00;99574.25;5012393;28;20045;-69
2022/01/14 01:34:09;;;;;;;19.05;6.47;;;-0.60;99.90;;;-1.76;100.00;99570.97;5010664;28;20050;-68
2022/01/14 01:36:38;;;;;;;17.02;6.07;;;-0.70;99.90;;;-1.79;100.00;99576.81;5010173;28;20136;-68
2022/01/14 01:39:09;;;;;;;12.88;5.93;;;-0.70;99.90;;;-1.76;100.00;99576.06;5012224;28;20076;-68
2022/01/14 01:41:39;;;;;;;11.80;5.22;;;-0.60;99.90;;;-1.64;100.00;99576.53;5010054;28;20077;-67
2022/01/14 01:44:07;;;;;;;9.50;4.32;;;-0.60;99.90;;;-1.64;100.00;99580.75;5009852;28;20136;-69
2022/01/14 01:46:40;;;;;;;11.50;5.13;;;-0.60;99.90;;;-1.53;100.00;99576.91;5010482;28;20136;-68
2022/01/14 01:49:09;;;;;;;;;;;-0.60;99.90;;;-1.55;100.00;99563.25;5009903;28;20085;-68
2022/01/14 01:51:38;;;;;;;21.98;8.40;;;-0.60;99.90;;;-1.61;100.00;99566.47;5012548;28;20005;-69
2022/01/14 01:54:05;;;;;;;14.93;7.43;;;-0.50;99.90;;;-1.75;100.00;99567.63;5011838;28;20586;-68
2022/01/14 01:56:32;;;;;;;16.08;7.32;;;-0.60;99.90;;;-1.70;100.00;99564.44;5010317;28;20125;-69
2022/01/14 01:59:00;;;;;;;18.98;7.35;;;-0.60;99.90;;;-1.63;100.00;99564.66;5011643;28;20073;-68
2022/01/14 02:01:27;;;;;;;19.63;9.30;;;-0.60;99.90;;;-1.61;100.00;99563.06;5008216;28;20145;-68
2022/01/14 02:03:55;;;;;;;18.52;8.25;;;-0.70;99.90;;;-1.77;100.00;99561.59;5011447;28;20046;-69
2022/01/14 02:06:23;;;;;;;17.42;8.30;;;-0.70;99.90;;;-1.72;100.00;99552.44;5010476;28;20402;-68
2022/01/14 02:08:51;;;;;;;21.20;10.65;;;-0.70;99.90;;;-1.83;100.00;99551.19;5012748;28;20072;-68
2022/01/14 02:11:18;;;;;;;24.42;10.82;;;-0.70;99.90;;;-1.92;100.00;99555.09;5009839;28;20578;-68
2022/01/14 02:13:48;;;;;;;23.30;10.63;;;-0.70;99.90;;;-1.93;100.00;99547.41;5007411;28;20134;-67
2022/01/14 02:16:20;;;;;;;22.98;10.77;;;-0.80;99.90;;;-1.95;100.00;99543.94;5010952;28;20073;-67
2022/01/14 02:24:56;;;;;;;39.65;17.63;;;-0.80;99.90;;;-1.99;100.00;99524.25;5009201;28;20145;-67
2022/01/14 02:26:54;;;;;;;36.13;16.38;;;-0.80;99.90;;;-2.06;100.00;99525.69;5008669;28;20053;-67
2022/01/14 02:29:22;;;;;;;39.47;20.08;;;-0.80;99.90;;;-2.19;100.00;99521.81;5010133;28;20050;-68
2022/01/14 02:31:49;;;;;;;37.40;19.42;;;-0.90;99.90;;;-2.13;100.00;99511.00;5011759;28;20046;-69
2022/01/14 02:34:16;;;;;;;38.67;18.50;;;-0.90;99.90;;;-2.17;100.00;99511.69;5009211;28;20136;-68
2022/01/14 02:36:46;;;;;;;33.50;17.15;;;-0.90;99.90;;;-1.94;100.00;99508.38;5010171;28;20180;-67
2022/01/14 02:39:16;;;;;;;34.72;16.30;;;-0.90;99.90;;;-1.96;100.00;99507.44;5010636;28;20156;-68
2022/01/14 02:41:46;;;;;;;42.97;17.60;;;-0.90;99.90;;;-1.90;100.00;99511.88;5010436;28;20045;-68
2022/01/14 02:44:24;;;;;;;31.10;14.50;;;-0.90;99.90;;;-1.97;100.00;99507.38;5008715;28;20042;-68
2022/01/14 02:46:56;;;;;;;39.25;18.05;;;-0.90;99.90;;;-1.98;100.00;99503.13;5010057;28;20136;-68
2022/01/14 02:49:28;;;;;;;35.50;15.48;;;-0.90;99.90;;;-1.94;100.00;99492.22;5008476;28;20127;-68
2022/01/14 02:51:58;;;;;;;29.77;13.82;;;-0.90;99.90;;;-2.01;100.00;99496.19;5009925;28;20129;-68
2022/01/14 02:54:41;;;;;;;30.02;13.45;;;-0.90;99.90;;;-2.10;100.00;99490.75;5008631;28;20126;-67
2022/01/14 02:57:11;;;;;;;35.38;15.63;;;-0.90;99.90;;;-2.13;100.00;99485.56;5010972;28;20081;-68
2022/01/14 02:59:39;;;;;;;31.40;14.20;;;-0.90;99.90;;;-2.08;100.00;99481.50;5006318;28;20093;-68
2022/01/14 03:02:10;;;;;;;30.15;14.52;;;-1.00;99.90;;;-2.15;100.00;99489.72;5009904;28;20054;-68
2022/01/14 03:04:41;;;;;;;34.97;15.07;;;-1.00;99.90;;;-2.24;100.00;99482.59;5008557;28;20054;-67
2022/01/14 03:07:09;;;;;;;30.80;14.63;;;-1.00;99.90;;;-2.31;100.00;99476.41;5009461;28;20132;-68
2022/01/14 03:09:37;;;;;;;35.70;15.63;;;-1.00;99.90;;;-2.43;100.00;99475.06;5013261;28;20133;-68
2022/01/14 03:12:06;;;;;;;38.38;15.50;;;-1.00;99.90;;;-2.57;100.00;99477.06;5009471;28;20068;-68
2022/01/14 03:14:33;;;;;;;32.58;14.65;;;-1.00;99.90;;;-2.43;100.00;99467.44;5009516;28;20128;-68
2022/01/14 03:17:01;;;;;;;35.00;15.20;;;-1.10;99.90;;;-2.40;100.00;99468.41;5010218;28;20046;-68
2022/01/14 03:19:29;;;;;;;28.70;14.27;;;-1.10;99.90;;;-2.41;100.00;99466.69;5008492;28;20663;-69
2022/01/14 03:22:18;;;;;;;28.30;12.32;;;-1.10;99.90;;;-2.40;100.00;99463.31;5010546;28;20084;-68
2022/01/14 03:27:13;;;;;;;35.22;16.27;;;-1.10;99.90;;;-2.42;100.00;99464.06;5009247;28;20034;-68
2022/01/14 03:29:40;;;;;;;35.90;15.75;;;-1.10;99.90;;;-2.28;100.00;99467.16;5006324;28;20129;-68
2022/01/14 03:32:08;;;;;;;22.58;12.48;;;-1.10;99.90;;;-2.18;100.00;99464.19;5009626;28;20141;-68
2022/01/14 03:34:36;;;;;;;29.73;13.85;;;-1.10;99.90;;;-2.22;100.00;99469.94;5009529;28;20045;-68
2022/01/14 03:37:04;;;;;;;30.77;14.85;;;-1.10;99.90;;;-2.31;100.00;99463.69;5009719;28;20080;-67
2022/01/14 03:39:32;;;;;;;31.05;13.43;;;-1.10;99.90;;;-2.23;100.00;99465.69;5010219;28;20226;-68
2022/01/14 03:41:59;;;;;;;35.30;14.30;;;-1.10;99.90;;;-2.07;100.00;99470.53;5008285;28;20133;-68
2022/01/14 03:44:26;;;;;;;26.42;13.73;;;-1.10;99.90;;;-2.17;100.00;99463.34;5008426;28;20053;-69
2022/01/14 03:46:53;;;;;;;32.03;13.45;;;-1.00;99.90;;;-2.05;100.00;99463.84;5008579;28;20130;-69
2022/01/14 03:49:20;;;;;;;31.27;14.23;;;-1.00;99.90;;;-2.01;100.00;99468.22;5007500;28;20121;-68
2022/01/14 03:51:47;;;;;;;35.67;15.48;;;-1.00;99.90;;;-2.10;100.00;99472.94;5012729;28;20064;-69
2022/01/14 03:54:14;;;;;;;27.15;11.57;;;-1.00;99.90;;;-2.02;100.00;99476.66;5011142;28;20122;-68
2022/01/14 03:56:41;;;;;;;29.13;14.07;;;-1.10;99.90;;;-2.17;100.00;99473.53;5011880;28;20129;-69
2022/01/14 03:59:08;;;;;;;29.60;13.57;;;-1.10;99.90;;;-2.07;100.00;99470.53;5008940;28;20064;-68
2022/01/14 04:01:35;;;;;;;32.13;13.15;;;-1.10;99.90;;;-2.06;100.00;99481.59;5007444;28;20443;-69
2022/01/14 04:04:02;;;;;;;33.17;13.05;;;-1.10;99.90;;;-2.03;100.00;99471.50;5010357;28;20492;-68
2022/01/14 04:06:30;;;;;;;31.25;14.30;;;-1.10;99.90;;;-2.06;100.00;99476.50;5008645;28;20128;-68
2022/01/14 04:08:57;;;;;;;28.08;12.65;;;-1.10;99.90;;;-2.33;100.00;99467.88;5011640;28;20045;-68
2022/01/14 04:11:24;;;;;;;27.73;13.50;;;-1.20;99.90;;;-2.28;100.00;99464.63;5009202;28;20486;-67
2022/01/14 04:13:54;;;;;;;32.83;13.77;;;-1.20;99.90;;;-2.35;100.00;99458.41;5008816;28;20136;-68
2022/01/14 04:16:24;;;;;;;25.58;12.35;;;-1.20;99.90;;;-2.29;100.00;99466.28;5004930;28;20088;-68
2022/01/14 04:18:52;;;;;;;28.42;13.00;;;-1.10;99.90;;;-2.33;100.00;99457.69;5007632;28;20069;-68
2022/01/14 04:21:20;;;;;;;25.58;12.27;;;-1.10;99.90;;;-2.27;100.00;99464.69;5008568;28;20136;-69
2022/01/14 04:23:47;;;;;;;28.90;12.45;;;-1.20;99.90;;;-2.36;100.00;99462.66;5010192;28;20085;-68
2022/01/14 04:26:15;;;;;;;27.40;12.93;;;-1.20;99.90;;;-2.30;100.00;99462.03;5008988;28;20152;-69
2022/01/14 04:28:42;;;;;;;24.45;13.23;;;-1.20;99.90;;;-2.50;100.00;99462.94;5006233;28;20129;-68
2022/01/14 04:31:10;;;;;;;32.42;14.93;;;-1.20;99.90;;;-2.58;100.00;99460.06;5009114;28;20145;-68
2022/01/14 04:33:38;;;;;;;29.20;13.98;;;-1.20;99.90;;;-2.52;100.00;99451.00;5009044;28;20049;-69
2022/01/14 04:36:06;;;;;;;27.15;14.02;;;-1.30;99.90;;;-2.45;100.00;99446.16;5007191;28;20064;-68
2022/01/14 04:38:34;;;;;;;26.45;12.07;;;-1.30;99.90;;;-2.41;100.00;99448.88;5013755;28;20053;-68
2022/01/14 04:41:01;;;;;;;27.88;13.77;;;-1.30;99.90;;;-2.37;100.00;99443.13;5009725;28;20140;-68
2022/01/14 04:43:29;;;;;;;24.25;11.85;;;-1.30;99.90;;;-2.43;100.00;99442.00;5013195;28;20176;-68
2022/01/14 04:48:34;;;;;;;23.35;12.43;;;-1.30;99.90;;;-2.58;100.00;99448.25;5007413;28;20121;-67
2022/01/14 04:51:06;;;;;;;28.63;13.50;;;-1.40;99.90;;;-2.51;100.00;99441.69;5013460;28;20081;-68
2022/01/14 04:53:34;;;;;;;27.15;12.80;;;-1.30;99.90;;;-2.52;100.00;99438.28;5011042;28;20546;-68
2022/01/14 04:56:02;;;;;;;26.48;13.70;;;-1.30;99.90;;;-2.63;100.00;99434.47;5009809;28;20081;-68
2022/01/14 04:58:29;;;;;;;30.05;14.68;;;-1.30;99.90;;;-2.57;100.00;99433.84;5009411;28;20132;-68
2022/01/14 05:00:56;;;;;;;25.63;12.35;;;-1.30;99.90;;;-2.58;100.00;99438.06;5012595;28;20088;-68
2022/01/14 05:03:24;;;;;;;30.50;15.13;;;-1.30;99.90;;;-2.41;100.00;99435.31;5017243;28;20447;-68
2022/01/14 05:05:55;;;;;;;30.90;15.20;;;-1.40;99.90;;;-2.36;100.00;99432.13;5011499;28;20038;-69
2022/01/14 05:08:34;;;;;;;28.77;13.43;;;-1.40;99.90;;;-2.43;100.00;99430.16;5011544;28;20145;-68
2022/01/14 05:11:21;;;;;;;27.02;12.90;;;-1.40;99.90;;;-2.48;100.00;99436.75;5012638;28;20050;-69
2022/01/14 05:13:49;;;;;;;28.55;12.80;;;-1.40;99.90;;;-2.41;100.00;99430.22;5012059;28;20133;-68
2022/01/14 05:16:16;;;;;;;25.73;12.88;;;-1.40;99.90;;;-2.52;100.00;99433.22;5012588;28;20054;-68
2022/01/14 05:18:43;;;;;;;24.00;12.85;;;-1.40;99.90;;;-2.80;100.00;99443.97;5011363;28;20065;-67
2022/01/14 05:21:12;;;;;;;34.60;15.32;;;-1.40;99.90;;;-2.84;100.00;99443.78;5012726;28;20144;-68
2022/01/14 05:23:39;;;;;;;33.65;16.40;;;-1.50;99.90;;;-2.80;100.00;99440.56;5013017;28;20050;-68
2022/01/14 05:26:11;;;;;;;33.85;17.15;;;-1.60;99.90;;;-3.01;100.00;99443.97;4997832;28;20049;-68
2022/01/14 05:28:38;;;;;;;28.25;14.88;;;-1.60;99.90;;;-2.98;100.00;99444.06;5011231;28;20509;-68
2022/01/14 05:31:05;;;;;;;31.77;15.50;;;-1.70;99.90;;;-2.97;100.00;99445.78;5011312;28;20144;-68
2022/01/14 05:33:32;;;;;;;35.13;16.77;;;-1.70;99.90;;;-2.97;100.00;99443.25;5011789;28;20149;-68
2022/01/14 05:35:59;;;;;;;29.10;15.35;;;-1.70;99.90;;;-2.98;100.00;99443.22;5013993;28;20068;-68
2022/01/14 05:38:26;;;;;;;34.30;16.02;;;-1.70;99.90;;;-3.00;100.00;99437.19;5012257;28;20483;-68
2022/01/14 05:40:53;;;;;;;29.98;14.10;;;-1.70;99.90;;;-2.98;100.00;99438.13;5011656;28;20089;-68
2022/01/14 05:43:20;;;;;;;29.67;13.63;;;-1.70;99.90;;;-2.95;100.00;99440.78;5011603;28;20108;-67
2022/01/14 05:45:47;;;;;;;24.45;12.40;;;-1.70;99.90;;;-2.99;100.00;99437.28;5009599;28;20074;-68
2022/01/14 05:48:14;;;;;;;28.48;12.63;;;-1.70;99.90;;;-2.92;100.00;99442.59;5010618;28;20140;-68
2022/01/14 05:50:41;;;;;;;26.75;13.15;;;-1.70;99.90;;;-2.86;100.00;99446.25;5008818;28;20042;-68
2022/01/14 05:53:08;;;;;;;27.23;13.13;;;-1.70;99.90;;;-2.80;100.00;99453.25;5011364;28;20125;-68
2022/01/14 05:55:36;;;;;;;22.13;11.15;;;-1.70;99.90;;;-2.76;100.00;99450.91;5008737;28;20050;-69
2022/01/14 05:58:03;;;;;;;28.23;12.07;;;-1.50;99.90;;;-2.72;100.00;99445.94;5008825;28;20077;-69
2022/01/14 06:00:30;;;;;;;30.40;14.93;;;-1.50;99.90;;;-2.83;100.00;99450.59;5008607;28;20052;-68
2022/01/14 06:02:57;;;;;;;29.50;13.63;;;-1.50;99.90;;;-2.79;100.00;99450.78;5010311;28;20109;-67
2022/01/14 06:05:24;;;;;;;21.95;9.65;;;-1.50;99.90;;;-2.61;100.00;99439.63;5009685;28;20042;-68
2022/01/14 06:07:52;;;;;;;25.42;11.25;;;-1.50;99.90;;;-2.74;100.00;99440.78;5005394;28;20132;-68
2022/01/14 06:10:22;;;;;;;22.85;10.90;;;-1.50;99.90;;;-3.17;100.00;99439.91;5004802;28;20060;-68
2022/01/14 06:12:50;;;;;;;30.08;15.55;;;-1.50;99.90;;;-3.10;100.00;99437.59;5008798;28;20056;-68
2022/01/14 06:15:17;;;;;;;26.52;12.82;;;-1.60;99.90;;;-2.97;100.00;99435.63;5002350;28;20074;-68
2022/01/14 06:17:45;;;;;;;39.00;20.70;;;-1.60;99.90;;;-3.13;100.00;99434.94;5011479;28;20069;-68
2022/01/14 06:20:12;;;;;;;60.53;30.15;;;-1.60;99.90;;;-3.22;100.00;99430.34;5010451;28;20100;-69
2022/01/14 06:22:39;;;;;;;51.05;24.00;;;-1.60;99.90;;;-3.14;100.00;99436.63;5006977;28;20060;-68
2022/01/14 06:25:08;;;;;;;72.05;36.95;;;-1.60;99.90;;;-3.07;100.00;99427.59;5008086;28;20079;-68
2022/01/14 06:27:35;;;;;;;51.47;26.15;;;-1.60;99.90;;;-3.05;100.00;99431.06;5007851;28;20052;-68
2022/01/14 06:30:06;;;;;;;51.60;26.40;;;-1.60;99.90;;;-3.22;100.00;99433.75;5005619;28;20050;-68
2022/01/14 06:32:41;;;;;;;49.95;23.80;;;-1.60;99.90;;;-3.23;100.00;99436.25;5009164;28;20140;-69
2022/01/14 06:35:13;;;;;;;35.50;17.63;;;-1.70;99.90;;;-3.05;100.00;99442.09;5010399;28;20041;-68
2022/01/14 06:37:41;;;;;;;34.00;17.48;;;-1.70;99.90;;;-2.93;100.00;99439.19;5009814;28;20096;-67
2022/01/14 06:40:10;;;;;;;34.28;19.35;;;-1.70;99.90;;;-3.01;100.00;99440.53;5009053;28;20161;-69
2022/01/14 06:42:44;;;;;;;44.92;23.58;;;-1.70;99.90;;;-2.80;100.00;99450.72;5008724;28;20432;-68
2022/01/14 06:45:11;;;;;;;73.72;38.50;;;-1.70;99.90;;;-3.03;100.00;99449.78;4993296;28;20058;-69
2022/01/14 06:47:38;;;;;;;112.57;53.58;;;-1.70;99.90;;;-3.05;100.00;99459.00;5009368;28;20058;-68
2022/01/14 06:50:06;;;;;;;92.40;45.20;;;-1.70;99.90;;;-2.93;100.00;99459.50;5012615;28;20473;-68
2022/01/14 06:52:33;;;;;;;75.97;39.85;;;-1.70;99.90;;;-3.01;100.00;99459.22;5008478;28;20118;-68
2022/01/14 06:54:59;;;;;;;61.97;31.60;;;-1.70;99.90;;;-2.86;100.00;99465.72;5008642;28;20124;-68
2022/01/14 06:57:26;;;;;;;47.97;24.92;;;-1.70;99.90;;;-2.91;100.00;99455.38;5010310;28;20054;-68
2022/01/14 06:59:53;;;;;;;44.50;23.63;;;-1.60;99.90;;;-2.78;100.00;99451.66;5010379;28;20080;-68
2022/01/14 07:02:20;;;;;;;47.92;25.02;;;-1.70;99.90;;;-2.90;100.00;99451.13;5010050;28;20053;-68
2022/01/14 07:04:47;;;;;;;45.28;23.92;;;-1.70;99.90;;;-3.02;100.00;99442.22;5010599;28;20537;-68
2022/01/14 07:07:14;;;;;;;44.90;25.40;;;-1.70;99.90;;;-2.93;100.00;99441.72;5011316;28;20160;-69
2022/01/14 07:09:57;;;;;;;41.35;22.05;;;-1.70;99.90;;;-2.83;100.00;99442.97;5009724;28;20160;-68
2022/01/14 07:12:38;;;;;;;43.55;24.30;;;-1.70;99.90;;;-2.96;100.00;99439.06;5008848;28;20216;-68
2022/01/14 07:15:11;;;;;;;49.05;26.42;;;-1.70;99.90;;;-2.82;100.00;99439.63;5009876;28;20124;-68
2022/01/14 07:17:39;;;;;;;52.65;30.25;;;-1.70;99.90;;;-3.04;100.00;99443.81;5008763;28;20225;-68
2022/01/14 07:20:12;;;;;;;40.92;23.73;;;-1.60;99.90;;;-2.93;100.00;99443.41;5013458;28;20136;-69
2022/01/14 07:22:42;;;;;;;46.50;24.38;;;-1.60;99.90;;;-2.87;100.00;99438.53;5009544;28;20526;-68
2022/01/14 07:25:10;;;;;;;61.58;32.55;;;-1.60;99.90;;;-3.25;100.00;99448.00;5009716;28;20136;-68
2022/01/14 07:27:37;;;;;;;56.03;27.95;;;-1.60;99.90;;;-3.16;100.00;99463.63;5003343;28;20043;-67
2022/01/14 07:30:09;;;;;;;44.05;23.80;;;-1.60;99.90;;;-2.94;100.00;99450.16;5007125;28;20515;-68
2022/01/14 07:32:36;;;;;;;49.60;25.23;;;-1.60;99.90;;;-2.82;100.00;99457.41;5009611;28;20447;-68
2022/01/14 07:35:04;;;;;;;42.97;22.75;;;-1.60;99.90;;;-2.71;100.00;99453.63;5010968;28;20128;-68
2022/01/14 07:37:31;;;;;;;37.83;20.05;;;-1.70;99.90;;;-2.66;100.00;99453.81;5007827;28;20128;-68
2022/01/14 07:39:57;;;;;;;38.42;20.73;;;-1.60;99.90;;;-2.62;100.00;99448.91;5010234;28;20141;-68
2022/01/14 07:42:25;;;;;;;44.67;21.83;;;-1.50;99.90;;;-2.53;100.00;99453.50;5008491;28;20512;-68
2022/01/14 07:44:52;;;;;;;47.38;25.58;;;-1.50;99.90;;;-2.56;100.00;99453.38;5008789;28;20422;-68
2022/01/14 07:47:19;;;;;;;42.00;23.17;;;-1.50;99.90;;;-2.53;100.00;99456.91;5009601;28;20081;-69
2022/01/14 07:49:47;;;;;;;47.92;23.88;;;-1.50;99.90;;;-2.62;100.00;99461.63;5009664;28;20046;-69
2022/01/14 07:52:14;;;;;;;46.33;23.38;;;-1.50;99.90;;;-2.62;100.00;99460.78;5010480;28;20451;-68
2022/01/14 07:54:40;;;;;;;41.92;21.83;;;-1.40;99.90;;;-2.63;100.00;99461.56;5009742;28;20214;-68
2022/01/14 07:57:08;;;;;;;43.97;25.05;;;-1.40;99.90;;;-2.61;100.00;99462.50;5009278;28;20508;-68
2022/01/14 07:59:36;;;;;;;54.67;27.58;;;-1.40;99.90;;;-2.56;100.00;99473.69;5008267;28;20075;-68
2022/01/14 08:02:05;;;;;;;49.17;26.50;;;-1.40;99.90;;;-2.48;100.00;99463.84;5010593;28;20054;-68
2022/01/14 08:04:35;;;;;;;52.15;28.35;;;-1.40;99.90;;;-2.56;100.00;99466.06;5011310;28;20432;-69
2022/01/14 08:07:09;;;;;;;54.63;29.13;;;-1.40;99.90;;;-2.45;100.00;99471.59;5010181;28;20077;-69
2022/01/14 08:09:39;;;;;;;74.63;34.47;;;-1.40;99.90;;;-2.58;100.00;99466.03;5008639;28;20089;-68
2022/01/14 08:12:07;;;;;;;55.20;28.50;;;-1.30;99.90;;;-2.61;100.00;99463.34;5010731;28;20050;-68
2022/01/14 08:14:35;;;;;;;63.65;31.85;;;-1.30;99.90;;;-2.42;100.00;99466.63;5006471;28;20087;-68
2022/01/14 08:17:03;;;;;;;71.00;32.97;;;-1.20;99.90;;;-2.78;100.00;99467.78;5008793;28;20136;-69
2022/01/14 08:19:33;;;;;;;57.97;28.42;;;-1.20;99.90;;;-2.52;100.00;99466.25;5006954;28;20053;-69
2022/01/14 08:22:03;;;;;;;48.45;25.70;;;-1.20;99.90;;;-2.51;100.00;99456.94;5010562;28;20073;-68
2022/01/14 08:24:32;;;;;;;46.10;24.70;;;-1.20;99.90;;;-2.51;100.00;99459.50;5008968;28;20221;-69
2022/01/14 08:27:00;;;;;;;50.47;22.17;;;-1.20;99.90;;;-2.44;100.00;99452.97;5007427;28;20053;-68
2022/01/14 08:29:28;;;;;;;45.05;21.63;;;-1.20;99.90;;;-2.29;100.00;99458.66;5008866;28;20125;-69
2022/01/14 08:31:56;;;;;;;46.53;22.85;;;-1.10;99.90;;;-2.28;100.00;99459.53;5008752;28;20108;-68
2022/01/14 08:34:24;;;;;;;45.15;22.08;;;-1.10;99.90;;;-2.34;100.00;99463.56;5006728;28;20132;-69
2022/01/14 08:36:51;;;;;;;47.47;22.83;;;-1.10;99.90;;;-2.28;100.00;99465.50;5009848;28;20148;-68
2022/01/14 08:39:18;;;;;;;41.97;22.25;;;-1.00;99.90;;;-2.12;100.00;99461.88;5006332;28;20184;-68
2022/01/14 08:41:46;;;;;;;53.15;25.90;;;-1.00;99.90;;;-2.08;100.00;99457.75;5007002;28;20133;-68
2022/01/14 08:44:14;;;;;;;46.78;23.77;;;-0.90;99.90;;;-2.08;100.00;99461.16;5009055;28;20062;-68
2022/01/14 08:46:52;;;;;;;54.53;25.92;;;-0.90;99.90;;;-1.94;100.00;99454.03;5004602;28;20050;-68
2022/01/14 08:49:19;;;;;;;50.88;25.27;;;-0.80;99.90;;;-2.13;100.00;99452.50;5009339;28;20082;-68
2022/01/14 08:51:47;;;;;;;58.15;28.13;;;-0.80;99.90;;;-2.04;100.00;99457.06;5010978;28;20081;-69
2022/01/14 08:54:14;;;;;;;56.28;28.40;;;-0.80;99.90;;;-1.97;100.00;99456.47;5008108;28;20145;-68
2022/01/14 08:56:42;;;;;;;56.45;28.20;;;-0.80;99.90;;;-1.91;100.00;99455.03;5008127;28;20125;-69
2022/01/14 08:59:09;;;;;;;55.13;28.30;;;-0.70;99.90;;;-1.88;100.00;99448.31;5007363;28;20140;-68
2022/01/14 09:01:40;;;;;;;47.67;24.08;;;-0.70;99.90;;;-1.92;100.00;99449.88;5009516;28;20050;-68
2022/01/14 09:04:07;;;;;;;46.00;23.65;;;-0.70;99.90;;;-1.81;100.00;99442.66;5006184;28;20061;-68
2022/01/14 09:06:34;;;;;;;46.50;23.33;;;-0.60;99.90;;;-1.83;100.00;99442.56;5006975;28;20141;-69
2022/01/14 09:09:02;;;;;;;42.70;21.25;;;-0.60;99.90;;;-1.74;100.00;99444.59;5004279;28;20042;-69
2022/01/14 09:11:29;;;;;;;39.95;20.25;;;-0.50;99.90;;;-1.81;100.00;99445.19;5005174;28;20161;-69
2022/01/14 09:13:57;;;;;;;42.22;21.27;;;-0.50;99.90;;;-1.67;100.00;99453.31;5003732;28;20057;-68
2022/01/14 09:16:24;;;;;;;37.97;19.98;;;-0.40;99.90;;;-1.63;100.00;99443.31;5006458;28;20073;-68
2022/01/14 09:18:51;;;;;;;36.10;20.30;;;-0.30;99.90;;;-1.42;100.00;99449.97;5007425;28;20049;-67
2022/01/14 09:21:18;;;;;;;45.08;21.73;;;-0.20;99.90;;;-1.35;100.00;99451.91;5009823;28;20138;-67
2022/01/14 09:23:52;;;;;;;44.95;23.00;;;-0.20;99.90;;;-1.32;100.00;99450.34;5010451;28;20049;-69
2022/01/14 09:26:20;;;;;;;43.70;21.58;;;-0.10;99.90;;;-1.13;100.00;99454.41;5016257;28;20146;-68
2022/01/14 09:28:49;;;;;;;34.13;20.55;;;0.00;99.90;;;-1.04;100.00;99455.53;5012109;28;20177;-67
2022/01/14 09:31:16;;;;;;;38.05;20.85;;;0.10;99.90;;;-0.93;100.00;99460.19;5010471;28;20128;-68
2022/01/14 09:33:43;;;;;;;43.28;22.75;;;0.20;99.90;;;-0.85;100.00;99455.31;5010894;28;20045;-68
2022/01/14 09:36:10;;;;;;;43.28;24.63;;;0.30;99.90;;;-0.76;100.00;99460.72;5010707;28;20235;-68
2022/01/14 09:38:37;;;;;;;63.10;35.03;;;0.40;99.90;;;-0.64;100.00;99465.34;5011789;28;20128;-68
2022/01/14 09:41:07;;;;;;;79.13;40.72;;;0.50;99.90;;;-0.48;100.00;99459.06;5012305;28;20196;-68
2022/01/14 09:43:36;;;;;;;72.43;39.88;;;0.60;99.90;;;-0.46;100.00;99465.97;5009319;28;20148;-68
2022/01/14 09:46:06;;;;;;;60.17;32.45;;;0.80;99.90;;;-0.34;100.00;99459.47;5010120;28;20458;-68
2022/01/14 09:48:34;;;;;;;52.88;28.50;;;0.90;99.90;;;-0.15;100.00;99466.91;5007107;28;20046;-68
2022/01/14 09:51:02;;;;;;;42.03;23.50;;;1.00;99.90;;;-0.03;100.00;99458.75;5004411;28;20125;-68
2022/01/14 09:53:30;;;;;;;32.20;18.88;;;1.10;99.90;;;0.06;100.00;99464.13;5011429;28;20049;-68
2022/01/14 09:55:58;;;;;;;41.70;22.77;;;1.10;99.90;;;0.06;100.00;99456.47;5012008;28;20509;-68
2022/01/14 09:58:28;;;;;;;41.55;23.83;;;1.20;99.90;;;0.14;100.00;99456.72;5009432;28;20092;-69
2022/01/14 10:01:16;;;;;;;43.67;23.10;;;1.30;99.90;;;0.25;100.00;99455.31;5009497;28;20136;-68
2022/01/14 10:03:57;;;;;;;44.03;22.63;;;1.40;99.90;;;0.43;100.00;99449.00;5010161;28;20053;-68
2022/01/14 10:06:39;;;;;;;45.55;24.13;;;1.60;99.90;;;0.51;100.00;99443.28;5011287;28;20429;-68
2022/01/14 10:09:33;;;;;;;58.70;28.75;;;1.70;99.90;;;0.66;100.00;99445.38;5007349;28;20414;-68
2022/01/14 10:12:08;;;;;;;;;;;1.80;99.90;;;0.57;100.00;99442.56;5010640;28;20579;-68
2022/01/14 10:14:40;;;;;;;40.65;22.30;;;1.90;99.90;;;0.73;100.00;99442.16;5006853;28;19921;-68
2022/01/14 10:17:11;;;;;;;37.20;20.50;;;2.00;99.90;;;0.85;100.00;99433.09;5011228;28;20071;-68
2022/01/14 10:19:44;;;;;;;40.80;21.95;;;2.00;99.90;;;0.93;100.00;99432.44;5008990;28;20042;-68
2022/01/14 10:22:27;;;;;;;38.30;21.77;;;2.10;99.90;;;1.00;100.00;99426.69;5012917;28;20542;-68
2022/01/14 10:25:01;;;;;;;38.25;20.83;;;2.20;99.90;;;1.13;100.00;99419.31;5006818;28;20129;-68
2022/01/14 10:27:52;;;;;;;40.97;20.92;;;2.30;99.90;;;1.27;100.00;99419.66;5010051;28;20195;-68
2022/01/14 10:30:21;;;;;;;44.20;23.45;;;2.40;99.90;;;1.38;100.00;99419.06;5005476;28;20080;-68
2022/01/14 10:33:08;;;;;;;45.30;24.63;;;2.60;99.90;;;1.47;100.00;99420.97;5011535;28;20124;-68
2022/01/14 10:35:46;;;;;;;38.38;22.10;;;2.70;99.90;;;1.65;100.00;99412.88;5010035;28;20542;-68